^^
Meteo Knjazevac Station Historical Data
Daily Summary for September 21, 2021 Units:  Metric    English   Both
Daily Weekly Monthly Yearly Custom
  High: Low: Average:
Temperature: 26.4 °C 16.7 °C 21.3 °C
Dew Point: 18.3 °C 14.8 °C 16.4 °C
Humidity: 99% 54% 76%
Wind Speed: 20.9km/h 0km/h 7.4km/h
Wind Gust: 35.4km/h - -
Wind- - WSW
Pressure: 1020.9 hPa 1018.2 hPa -
Precipitation: 0 mm    
Historical Graphs
 
 
Tabular Data for September 21, 2021
Time Temperature Dew Point Pressure Wind Wind Speed Wind Gust Humidity Rainfall Rate (Hourly) solar Conditions
00:00 19.5 °C 18.3 °C 1018.2 hPa NE 1.6 km/h 4.8 km/h 93% 0 mm 0 W/m2
00:10 19.4 °C 18.2 °C 1018.2 hPa ENE 3.2 km/h 11.3 km/h 93% 0 mm 0 W/m2
00:20 19.2 °C 18.1 °C 1018.2 hPa NNE 1.6 km/h 4.8 km/h 93% 0 mm 0 W/m2
00:30 19.1 °C 18.1 °C 1018.2 hPa WSW 1.6 km/h 4.8 km/h 94% 0 mm 0 W/m2
00:40 18.9 °C 17.9 °C 1018.2 hPa West 1.6 km/h 6.4 km/h 94% 0 mm 0 W/m2
00:50 18.8 °C 18 °C 1018.2 hPa SSW 3.2 km/h 4.8 km/h 95% 0 mm 0 W/m2
01:00 18.7 °C 17.9 °C 1018.2 hPa Calm   4.8 km/h 95% 0 mm 0 W/m2
01:10 18.6 °C 17.8 °C 1018.2 hPa WSW 3.2 km/h 4.8 km/h 95% 0 mm 0 W/m2
01:20 18.5 °C 17.8 °C 1018.2 hPa WSW 3.2 km/h 8 km/h 96% 0 mm 0 W/m2
01:30 18.4 °C 17.8 °C 1018.2 hPa SW 3.2 km/h 4.8 km/h 96% 0 mm 0 W/m2
01:40 18.1 °C 17.4 °C 1018.2 hPa WSW 1.6 km/h 4.8 km/h 96% 0 mm 0 W/m2
01:50 18.1 °C 17.8 °C 1018.2 hPa WSW 1.6 km/h 3.2 km/h 98% 0 mm 0 W/m2
02:00 18.1 °C 17.8 °C 1018.2 hPa West 1.6 km/h 3.2 km/h 98% 0 mm 0 W/m2
02:10 18.1 °C 17.9 °C 1018.2 hPa West 3.2 km/h 4.8 km/h 99% 0 mm 0 W/m2
02:20 18.1 °C 17.9 °C 1018.2 hPa WSW 3.2 km/h 3.2 km/h 99% 0 mm 0 W/m2
02:30 18 °C 17.7 °C 1018.2 hPa WSW 1.6 km/h 4.8 km/h 98% 0 mm 0 W/m2
02:40 18 °C 17.7 °C 1018.2 hPa WSW 1.6 km/h 4.8 km/h 98% 0 mm 0 W/m2
02:50 18 °C 17.8 °C 1018.2 hPa Calm   4.8 km/h 99% 0 mm 0 W/m2
03:00 18 °C 17.8 °C 1018.5 hPa West 1.6 km/h 3.2 km/h 99% 0 mm 0 W/m2
03:10 18 °C 17.7 °C 1018.5 hPa Calm   3.2 km/h 98% 0 mm 0 W/m2
03:20 17.7 °C 17.4 °C 1018.5 hPa West 1.6 km/h 3.2 km/h 98% 0 mm 0 W/m2
03:30 17.5 °C 17.2 °C 1018.5 hPa West 1.6 km/h 4.8 km/h 98% 0 mm 0 W/m2
03:40 17.4 °C 17.2 °C 1018.5 hPa WNW 1.6 km/h 4.8 km/h 99% 0 mm 0 W/m2
03:50 17.4 °C 17.2 °C 1018.5 hPa SSW 1.6 km/h 4.8 km/h 99% 0 mm 0 W/m2
04:00 17.4 °C 17.2 °C 1018.5 hPa SW 1.6 km/h 4.8 km/h 99% 0 mm 0 W/m2
04:10 17.3 °C 17.2 °C 1018.5 hPa WSW 1.6 km/h 3.2 km/h 99% 0 mm 0 W/m2
04:20 17.2 °C 17.1 °C 1018.5 hPa Calm   1.6 km/h 99% 0 mm 0 W/m2
04:30 17.2 °C 17.1 °C 1018.5 hPa WNW 1.6 km/h 4.8 km/h 99% 0 mm 0 W/m2
04:40 17.1 °C 16.9 °C 1018.5 hPa SSW 1.6 km/h 4.8 km/h 99% 0 mm 0 W/m2
04:50 17 °C 16.8 °C 1018.5 hPa South 1.6 km/h 4.8 km/h 99% 0 mm 0 W/m2
05:00 17 °C 16.8 °C 1018.8 hPa North 3.2 km/h 6.4 km/h 99% 0 mm 0 W/m2
05:10 16.9 °C 16.7 °C 1018.8 hPa NE 4.8 km/h 9.7 km/h 99% 0 mm 3 W/m2
05:20 16.9 °C 16.7 °C 1018.8 hPa NE 8 km/h 11.3 km/h 99% 0 mm 8 W/m2
05:30 16.9 °C 16.7 °C 1019.2 hPa NE 8 km/h 11.3 km/h 99% 0 mm 16 W/m2
05:40 16.8 °C 16.7 °C 1019.2 hPa NE 3.2 km/h 11.3 km/h 99% 0 mm 26 W/m2
05:50 16.7 °C 16.6 °C 1019.2 hPa NE 8 km/h 12.9 km/h 99% 0 mm 37 W/m2
06:00 16.7 °C 16.6 °C 1019.2 hPa East 4.8 km/h 11.3 km/h 99% 0 mm 55 W/m2
06:10 16.7 °C 16.6 °C 1019.2 hPa North 3.2 km/h 9.7 km/h 99% 0 mm 57 W/m2
06:20 16.8 °C 16.5 °C 1019.5 hPa SSE 1.6 km/h 11.3 km/h 98% 0 mm 98 W/m2
06:30 16.8 °C 16.5 °C 1019.5 hPa North 1.6 km/h 8 km/h 98% 0 mm 124 W/m2
06:40 16.9 °C 16.3 °C 1019.5 hPa NE 1.6 km/h 6.4 km/h 96% 0 mm 150 W/m2
06:50 17 °C 16.3 °C 1019.5 hPa NNE 3.2 km/h 8 km/h 96% 0 mm 178 W/m2
07:00 17.1 °C 16.4 °C 1019.9 hPa NW 1.6 km/h 4.8 km/h 96% 0 mm 214 W/m2
07:10 17.4 °C 16.6 °C 1019.9 hPa SW 8 km/h 11.3 km/h 95% 0 mm 238 W/m2
07:20 17.8 °C 16.8 °C 1019.9 hPa SW 8 km/h 14.5 km/h 94% 0 mm 248 W/m2
07:30 18.2 °C 16.6 °C 1019.9 hPa WSW 8 km/h 20.9 km/h 90% 0 mm 169 W/m2
07:40 18.4 °C 16.6 °C 1019.9 hPa WSW 11.3 km/h 17.7 km/h 89% 0 mm 295 W/m2
07:50 18.7 °C 16.7 °C 1019.9 hPa WSW 9.7 km/h 19.3 km/h 88% 0 mm 355 W/m2
08:00 19.1 °C 16.5 °C 1020.2 hPa WSW 9.7 km/h 24.1 km/h 85% 0 mm 407 W/m2
08:10 19.3 °C 16.7 °C 1020.2 hPa WSW 11.3 km/h 20.9 km/h 85% 0 mm 430 W/m2
08:20 19.5 °C 16.7 °C 1020.2 hPa West 11.3 km/h 20.9 km/h 84% 0 mm 473 W/m2
08:30 19.7 °C 16.7 °C 1020.2 hPa West 11.3 km/h 20.9 km/h 83% 0 mm 510 W/m2
08:40 19.9 °C 16.3 °C 1020.2 hPa WSW 12.9 km/h 19.3 km/h 80% 0 mm 551 W/m2
08:50 20.2 °C 16.4 °C 1020.5 hPa West 9.7 km/h 22.5 km/h 79% 0 mm 582 W/m2
09:00 20.6 °C 16.4 °C 1020.2 hPa WSW 14.5 km/h 22.5 km/h 77% 0 mm 606 W/m2
09:10 21.2 °C 16.4 °C 1020.2 hPa WSW 12.9 km/h 20.9 km/h 74% 0 mm 648 W/m2
09:20 21.6 °C 16.6 °C 1020.2 hPa WSW 12.9 km/h 20.9 km/h 73% 0 mm 676 W/m2
09:30 21.9 °C 16.6 °C 1020.2 hPa WSW 14.5 km/h 24.1 km/h 72% 0 mm 708 W/m2
09:40 22.2 °C 16.4 °C 1020.2 hPa West 14.5 km/h 22.5 km/h 70% 0 mm 734 W/m2
09:50 22.4 °C 15.9 °C 1020.2 hPa West 14.5 km/h 22.5 km/h 67% 0 mm 757 W/m2
10:00 22.6 °C 15.9 °C 1020.2 hPa WSW 14.5 km/h 32.2 km/h 66% 0 mm 779 W/m2
10:10 22.8 °C 15.9 °C 1020.2 hPa WSW 14.5 km/h 27.4 km/h 65% 0 mm 800 W/m2
10:20 23 °C 15.8 °C 1020.2 hPa WSW 16.1 km/h 30.6 km/h 64% 0 mm 820 W/m2
10:30 23 °C 15.8 °C 1020.2 hPa WSW 12.9 km/h 32.2 km/h 64% 0 mm 839 W/m2
10:40 23.1 °C 15.9 °C 1020.2 hPa West 20.9 km/h 32.2 km/h 64% 0 mm 856 W/m2
10:50 23.2 °C 16 °C 1020.2 hPa WSW 14.5 km/h 35.4 km/h 64% 0 mm 225 W/m2
11:00 23.4 °C 16.2 °C 1020.2 hPa WSW 14.5 km/h 27.4 km/h 64% 0 mm 887 W/m2
11:10 23.6 °C 15.9 °C 1020.2 hPa WSW 14.5 km/h 29 km/h 62% 0 mm 900 W/m2
11:20 23.7 °C 16 °C 1020.2 hPa WSW 16.1 km/h 27.4 km/h 62% 0 mm 300 W/m2
11:30 23.9 °C 15.7 °C 1020.2 hPa WSW 19.3 km/h 33.8 km/h 60% 0 mm 718 W/m2
11:40 23.8 °C 15.6 °C 1020.2 hPa WSW 11.3 km/h 27.4 km/h 60% 0.25 mm 533 W/m2
11:50 24 °C 15.8 °C 1020.2 hPa WSW 11.3 km/h 27.4 km/h 60% 0 mm 939 W/m2
12:00 24.2 °C 15.9 °C 1019.9 hPa WSW 19.3 km/h 27.4 km/h 60% 0.25 mm 945 W/m2
12:10 24.5 °C 16.2 °C 1019.9 hPa West 14.5 km/h 27.4 km/h 60% 0 mm 950 W/m2
12:20 24.7 °C 15.9 °C 1019.9 hPa WSW 12.9 km/h 32.2 km/h 58% 0 mm 953 W/m2
12:30 24.6 °C 15.5 °C 1019.9 hPa West 16.1 km/h 29 km/h 57% 0 mm 955 W/m2
12:40 24.8 °C 16.2 °C 1019.9 hPa West 12.9 km/h 32.2 km/h 59% 0 mm 955 W/m2
12:50 25.1 °C 16.3 °C 1019.9 hPa West 16.1 km/h 27.4 km/h 58% 0 mm 640 W/m2
13:00 24.9 °C 16.1 °C 1019.9 hPa West 16.1 km/h 27.4 km/h 58% 0 mm 350 W/m2
13:10 24.7 °C 15.8 °C 1019.9 hPa West 14.5 km/h 29 km/h 58% 0 mm 650 W/m2
13:20 24.8 °C 16 °C 1019.9 hPa West 14.5 km/h 33.8 km/h 58% 0 mm 939 W/m2
13:30 25 °C 16.2 °C 1019.9 hPa West 16.1 km/h 27.4 km/h 58% 0 mm 442 W/m2
13:40 25.1 °C 16 °C 1019.9 hPa West 16.1 km/h 25.7 km/h 57% 0 mm 923 W/m2
13:50 25 °C 15.9 °C 1019.5 hPa West 12.9 km/h 32.2 km/h 57% 0 mm 912 W/m2
14:00 25.2 °C 16.3 °C 1019.5 hPa WNW 8 km/h 22.5 km/h 58% 0 mm 448 W/m2
14:10 25 °C 16.2 °C 1019.5 hPa West 14.5 km/h 24.1 km/h 58% 0 mm 529 W/m2
14:20 24.6 °C 15.5 °C 1019.5 hPa WSW 11.3 km/h 25.7 km/h 57% 0 mm 622 W/m2
14:30 24.9 °C 16.1 °C 1019.5 hPa West 12.9 km/h 24.1 km/h 58% 0 mm 637 W/m2
14:40 24.8 °C 15.7 °C 1019.5 hPa West 9.7 km/h 24.1 km/h 57% 0 mm 252 W/m2
14:50 25.1 °C 16 °C 1019.2 hPa WSW 12.9 km/h 22.5 km/h 57% 0 mm 820 W/m2
15:00 25.4 °C 16.3 °C 1019.2 hPa West 12.9 km/h 24.1 km/h 57% 0 mm 800 W/m2
15:10 25.4 °C 15.7 °C 1019.2 hPa WSW 16.1 km/h 30.6 km/h 55% 0 mm 289 W/m2
15:20 25.6 °C 15.9 °C 1019.2 hPa West 11.3 km/h 22.5 km/h 55% 0 mm 756 W/m2
15:30 25.6 °C 15.6 °C 1019.2 hPa West 12.9 km/h 25.7 km/h 54% 0 mm 421 W/m2
15:40 25.4 °C 15.7 °C 1019.2 hPa West 16.1 km/h 33.8 km/h 55% 0 mm 709 W/m2
15:50 25.5 °C 15.8 °C 1019.2 hPa West 11.3 km/h 29 km/h 55% 0 mm 684 W/m2
16:00 25.7 °C 15.7 °C 1019.2 hPa WNW 8 km/h 22.5 km/h 54% 0 mm 509 W/m2
16:10 25.9 °C 15.9 °C 1019.2 hPa WNW 12.9 km/h 24.1 km/h 54% 0 mm 630 W/m2
16:20 26 °C 16 °C 1019.2 hPa West 11.3 km/h 24.1 km/h 54% 0 mm 603 W/m2
16:30 26.1 °C 16.1 °C 1019.2 hPa West 9.7 km/h 25.7 km/h 54% 0 mm 574 W/m2
16:40 26.3 °C 16.2 °C 1019.2 hPa West 11.3 km/h 20.9 km/h 54% 0 mm 545 W/m2
16:50 26.3 °C 16.2 °C 1019.2 hPa WNW 11.3 km/h 20.9 km/h 54% 0 mm 516 W/m2
17:00 26.3 °C 16.3 °C 1019.2 hPa NW 12.9 km/h 22.5 km/h 54% 0 mm 486 W/m2
17:10 26.4 °C 16.3 °C 1019.2 hPa WNW 12.9 km/h 22.5 km/h 54% 0 mm 450 W/m2
17:20 26 °C 16.3 °C 1019.2 hPa WNW 9.7 km/h 20.9 km/h 55% 0 mm 209 W/m2
17:30 25.9 °C 16.2 °C 1019.2 hPa NW 11.3 km/h 20.9 km/h 55% 0 mm 372 W/m2
17:40 25.9 °C 15.9 °C 1019.2 hPa WNW 11.3 km/h 24.1 km/h 54% 0 mm 349 W/m2
17:50 25.9 °C 16.4 °C 1019.2 hPa NW 8 km/h 20.9 km/h 56% 0 mm 318 W/m2
18:00 25.9 °C 16.2 °C 1019.2 hPa NW 11.3 km/h 20.9 km/h 55% 0 mm 274 W/m2
18:10 25.8 °C 16.1 °C 1019.2 hPa NW 3.2 km/h 20.9 km/h 55% 0 mm 248 W/m2
18:20 25.7 °C 16 °C 1019.5 hPa NW 9.7 km/h 16.1 km/h 55% 0 mm 210 W/m2
18:30 25.5 °C 15.8 °C 1019.2 hPa NW 9.7 km/h 19.3 km/h 55% 0 mm 180 W/m2
18:40 25.3 °C 16.2 °C 1019.2 hPa NW 9.7 km/h 19.3 km/h 57% 0 mm 148 W/m2
18:50 25.1 °C 16 °C 1019.5 hPa NW 4.8 km/h 16.1 km/h 57% 0 mm 121 W/m2
19:00 24.9 °C 16.3 °C 1019.5 hPa WNW 8 km/h 12.9 km/h 59% 0 mm 98 W/m2
19:10 24.7 °C 16.4 °C 1019.5 hPa NW 1.6 km/h 12.9 km/h 60% 0 mm 74 W/m2
19:20 24.5 °C 16.7 °C 1019.5 hPa WNW 4.8 km/h 9.7 km/h 62% 0 mm 49 W/m2
19:30 24.2 °C 16.4 °C 1019.5 hPa WNW 4.8 km/h 12.9 km/h 62% 0 mm 36 W/m2
19:40 23.8 °C 16.3 °C 1019.5 hPa West 3.2 km/h 9.7 km/h 63% 0 mm 23 W/m2
19:50 23.4 °C 15.9 °C 1019.9 hPa West 4.8 km/h 9.7 km/h 63% 0 mm 13 W/m2
20:00 23.1 °C 15.9 °C 1019.9 hPa West 3.2 km/h 9.7 km/h 64% 0 mm 6 W/m2
20:10 22.7 °C 16.3 °C 1019.9 hPa West 4.8 km/h 8 km/h 67% 0 mm 0 W/m2
20:20 22.3 °C 16.1 °C 1019.9 hPa West 3.2 km/h 8 km/h 68% 0 mm 0 W/m2
20:30 22.1 °C 16.1 °C 1020.2 hPa WSW 3.2 km/h 4.8 km/h 69% 0 mm 0 W/m2
20:40 21.8 °C 15.8 °C 1020.2 hPa WSW 1.6 km/h 4.8 km/h 69% 0 mm 0 W/m2
20:50 21.5 °C 16.2 °C 1020.2 hPa Calm   3.2 km/h 72% 0 mm 0 W/m2
21:00 21.3 °C 16.3 °C 1020.5 hPa NNW 1.6 km/h 3.2 km/h 73% 0 mm 0 W/m2
21:10 20.9 °C 16.3 °C 1020.5 hPa SW 1.6 km/h 3.2 km/h 75% 0 mm 0 W/m2
21:20 20.7 °C 16.5 °C 1020.5 hPa West 3.2 km/h 6.4 km/h 77% 0 mm 0 W/m2
21:30 20.4 °C 15.8 °C 1020.5 hPa West 4.8 km/h 8 km/h 75% 0 mm 0 W/m2
21:40 20.1 °C 15.6 °C 1020.9 hPa West 3.2 km/h 8 km/h 75% 0 mm 0 W/m2
21:50 19.9 °C 15.7 °C 1020.9 hPa West 3.2 km/h 8 km/h 77% 0 mm 0 W/m2
22:00 19.6 °C 15.7 °C 1020.9 hPa West 3.2 km/h 6.4 km/h 78% 0 mm 0 W/m2
22:10 19.3 °C 15.8 °C 1020.9 hPa WSW 1.6 km/h 3.2 km/h 80% 0 mm 0 W/m2
22:20 19.1 °C 15.7 °C 1020.9 hPa Calm     81% 0 mm 0 W/m2
22:30 18.8 °C 15.8 °C 1020.9 hPa WSW 1.6 km/h 3.2 km/h 83% 0 mm 0 W/m2
22:40 18.3 °C 15.6 °C 1020.9 hPa Calm   3.2 km/h 84% 0 mm 0 W/m2
22:50 18.1 °C 15.6 °C 1020.9 hPa WSW 1.6 km/h 3.2 km/h 85% 0 mm 0 W/m2
23:00 17.8 °C 15.2 °C 1020.9 hPa SW 1.6 km/h 4.8 km/h 85% 0 mm 0 W/m2
23:10 17.4 °C 15.1 °C 1020.9 hPa Calm   6.4 km/h 86% 0 mm 0 W/m2
23:20 17.2 °C 14.8 °C 1020.9 hPa West 1.6 km/h 4.8 km/h 86% 0 mm 0 W/m2
23:30 17.1 °C 15.1 °C 1020.9 hPa North 1.6 km/h 4.8 km/h 88% 0 mm 0 W/m2
23:40 17 °C 15 °C 1020.9 hPa Calm   3.2 km/h 88% 0 mm 0 W/m2
23:50 16.9 °C 15.1 °C 1020.9 hPa Calm   3.2 km/h 89% 0 mm 0 W/m2
Knjazevac, Serbia
Compliments of Weather Underground - 2 mb